Depoe Bay, OR

6:54 PM PST on February 27, 2015 (GMT -0800)
KORDEPOE3 | Change Station
CLOSE
Current Station
Personal Weather Station
Location: Depoe Bay, OR
Elevation: 85 ft
Nearby Weather Stations

Elev 85 ft 44.86 °N, 124.04 °W | Updated 3 minutes ago

Overcast
Overcast
48.2 °F
Feels Like 48 °F
N
0.0
Wind Variable Wind from West
Gusts 1.0 mph

Today
High -- | Low -- °F
--% Chance of Precip.
Yesterday
High -- | Low -- °F
Precip. -- in
6:57 AM 6:00 PM
Waxing Gibbous, 73% visible
Pressure 29.72 in
Visibility 10.0 miles
Clouds Scattered Clouds 1100 ft
Mostly Cloudy 3300 ft
Overcast 4700 ft
Windchill 48 °F
Dew Point 47 °F
Humidity 95%
Rainfall 0.40 in
Snow Depth Not available.
UV 0 out of 12
Pollen .60 out of 12
Air Quality Not available.
Flu Activity Not available.
METAR KONP 280235Z AUTO 11003KT 10SM SCT011 BKN033 OVC047 08/08 A2972 RMK AO2

More Conditions Fewer Conditions

Pressure 29.72 in
Visibility 10.0 miles
Clouds Scattered Clouds 1100 ft
Mostly Cloudy 3300 ft
Overcast 4700 ft
Windchill 48 °F
Dew Point 47 °F
Humidity 95%
Rainfall 0.40 in
Snow Depth Not available.
UV 0 out of 12
Pollen .60 out of 12
Air Quality Not available.
Flu Activity Not available.
METAR KONP 280235Z AUTO 11003KT 10SM SCT011 BKN033 OVC047 08/08 A2972 RMK AO2

More Conditions Fewer Conditions

10-Day Weather Forecast

Almanac

Astronomy

Feb. 27, 2015 Rise Set
Actual Time
Civil Twilight
Nautical Twilight
Astronomical Twilight
Moon
Length of Visible Light
Length of Day
Tomorrow will be .
, % of the Moon is Illuminated

Today's Extremes

State Highs State Lows

Community

WunderPhotos

Upload Photos

1,800,943 photos uploaded!

WunderBlogs® & News

Nearby

Air Quality

  Air Quality AQ Index Pollutant
Not available.

Snow Depth

Station Depth Elevation

Earthquake Activity

City Distance Mag. Time & Date
Minimum magnitude displayed is 2.5.

Coastal Water Temperatures

Place Temperature

Nearby Weather Stations